sensor_id;sensor_type;location;lat;lon;timestamp;P1;durP1;ratioP1;P2;durP2;ratioP2
5762;SDS011;2906;53.282;9.508;2024-02-14T00:00:57;4.78;;;1.80;;
5762;SDS011;2906;53.282;9.508;2024-02-14T00:01:58;2.85;;;1.67;;
5762;SDS011;2906;53.282;9.508;2024-02-14T00:03:07;4.13;;;1.80;;
5762;SDS011;2906;53.282;9.508;2024-02-14T00:04:10;3.42;;;1.70;;
5762;SDS011;2906;53.282;9.508;2024-02-14T00:05:14;2.38;;;1.65;;
5762;SDS011;2906;53.282;9.508;2024-02-14T00:06:17;4.60;;;1.80;;
5762;SDS011;2906;53.282;9.508;2024-02-14T00:07:21;3.58;;;1.60;;
5762;SDS011;2906;53.282;9.508;2024-02-14T00:08:28;3.38;;;2.15;;
5762;SDS011;2906;53.282;9.508;2024-02-14T00:09:30;2.03;;;1.70;;
5762;SDS011;2906;53.282;9.508;2024-02-14T00:10:32;5.38;;;2.17;;
5762;SDS011;2906;53.282;9.508;2024-02-14T00:11:33;3.35;;;2.20;;
5762;SDS011;2906;53.282;9.508;2024-02-14T00:12:36;2.78;;;1.77;;
5762;SDS011;2906;53.282;9.508;2024-02-14T00:13:37;5.53;;;1.67;;
5762;SDS011;2906;53.282;9.508;2024-02-14T00:14:44;2.70;;;2.03;;
5762;SDS011;2906;53.282;9.508;2024-02-14T00:15:46;6.38;;;2.17;;
5762;SDS011;2906;53.282;9.508;2024-02-14T00:16:57;6.70;;;2.28;;
5762;SDS011;2906;53.282;9.508;2024-02-14T00:18:05;1.80;;;1.70;;
5762;SDS011;2906;53.282;9.508;2024-02-14T00:19:12;7.32;;;1.73;;
5762;SDS011;2906;53.282;9.508;2024-02-14T00:20:16;2.58;;;1.80;;
5762;SDS011;2906;53.282;9.508;2024-02-14T00:21:24;4.65;;;2.20;;
5762;SDS011;2906;53.282;9.508;2024-02-14T00:22:28;6.78;;;2.42;;
5762;SDS011;2906;53.282;9.508;2024-02-14T00:23:30;5.05;;;2.10;;
5762;SDS011;2906;53.282;9.508;2024-02-14T00:24:33;4.20;;;2.22;;
5762;SDS011;2906;53.282;9.508;2024-02-14T00:25:36;6.15;;;2.40;;
5762;SDS011;2906;53.282;9.508;2024-02-14T00:26:42;4.32;;;2.10;;
5762;SDS011;2906;53.282;9.508;2024-02-14T00:27:43;5.90;;;1.90;;
5762;SDS011;2906;53.282;9.508;2024-02-14T00:28:47;4.20;;;2.28;;
5762;SDS011;2906;53.282;9.508;2024-02-14T00:29:52;2.20;;;2.00;;
5762;SDS011;2906;53.282;9.508;2024-02-14T00:30:56;2.20;;;1.83;;
5762;SDS011;2906;53.282;9.508;2024-02-14T00:32:04;5.25;;;2.20;;
5762;SDS011;2906;53.282;9.508;2024-02-14T00:33:07;4.03;;;2.05;;
5762;SDS011;2906;53.282;9.508;2024-02-14T00:35:29;2.72;;;1.90;;
5762;SDS011;2906;53.282;9.508;2024-02-14T00:36:32;3.53;;;2.10;;
5762;SDS011;2906;53.282;9.508;2024-02-14T00:37:42;5.68;;;2.20;;
5762;SDS011;2906;53.282;9.508;2024-02-14T00:38:43;10.70;;;2.40;;
5762;SDS011;2906;53.282;9.508;2024-02-14T00:40:00;9.27;;;2.30;;
5762;SDS011;2906;53.282;9.508;2024-02-14T00:41:02;11.10;;;2.83;;
5762;SDS011;2906;53.282;9.508;2024-02-14T00:42:10;2.00;;;1.80;;
5762;SDS011;2906;53.282;9.508;2024-02-14T00:43:11;7.50;;;2.53;;
5762;SDS011;2906;53.282;9.508;2024-02-14T00:44:14;3.05;;;2.10;;
5762;SDS011;2906;53.282;9.508;2024-02-14T00:45:17;6.28;;;2.20;;
5762;SDS011;2906;53.282;9.508;2024-02-14T00:46:31;8.73;;;2.38;;
5762;SDS011;2906;53.282;9.508;2024-02-14T00:47:34;3.38;;;2.00;;
5762;SDS011;2906;53.282;9.508;2024-02-14T00:48:36;6.05;;;2.65;;
5762;SDS011;2906;53.282;9.508;2024-02-14T00:49:38;6.07;;;2.53;;
5762;SDS011;2906;53.282;9.508;2024-02-14T00:50:43;2.75;;;2.08;;
5762;SDS011;2906;53.282;9.508;2024-02-14T00:51:46;5.18;;;2.08;;
5762;SDS011;2906;53.282;9.508;2024-02-14T00:52:50;6.35;;;2.63;;
5762;SDS011;2906;53.282;9.508;2024-02-14T00:53:52;4.95;;;3.00;;
5762;SDS011;2906;53.282;9.508;2024-02-14T00:54:54;9.57;;;2.85;;
5762;SDS011;2906;53.282;9.508;2024-02-14T00:55:56;6.88;;;3.00;;
5762;SDS011;2906;53.282;9.508;2024-02-14T00:57:00;3.30;;;2.35;;
5762;SDS011;2906;53.282;9.508;2024-02-14T00:58:02;5.10;;;2.80;;
5762;SDS011;2906;53.282;9.508;2024-02-14T00:59:05;3.72;;;2.20;;
5762;SDS011;2906;53.282;9.508;2024-02-14T01:00:08;6.15;;;3.15;;
5762;SDS011;2906;53.282;9.508;2024-02-14T01:01:10;3.42;;;3.13;;
5762;SDS011;2906;53.282;9.508;2024-02-14T01:02:12;5.63;;;2.60;;
5762;SDS011;2906;53.282;9.508;2024-02-14T01:03:14;4.80;;;2.83;;
5762;SDS011;2906;53.282;9.508;2024-02-14T01:04:20;5.93;;;2.60;;
5762;SDS011;2906;53.282;9.508;2024-02-14T01:05:29;4.43;;;2.85;;
5762;SDS011;2906;53.282;9.508;2024-02-14T01:06:34;6.07;;;2.85;;
5762;SDS011;2906;53.282;9.508;2024-02-14T01:07:41;4.05;;;2.47;;
5762;SDS011;2906;53.282;9.508;2024-02-14T01:08:42;13.00;;;2.65;;
5762;SDS011;2906;53.282;9.508;2024-02-14T01:09:45;7.80;;;3.40;;
5762;SDS011;2906;53.282;9.508;2024-02-14T01:10:48;9.23;;;2.63;;
5762;SDS011;2906;53.282;9.508;2024-02-14T01:11:52;7.28;;;2.97;;
5762;SDS011;2906;53.282;9.508;2024-02-14T01:12:59;4.50;;;2.78;;
5762;SDS011;2906;53.282;9.508;2024-02-14T01:14:03;3.15;;;2.70;;
5762;SDS011;2906;53.282;9.508;2024-02-14T01:15:10;5.72;;;3.55;;
5762;SDS011;2906;53.282;9.508;2024-02-14T01:16:19;3.42;;;2.50;;
5762;SDS011;2906;53.282;9.508;2024-02-14T01:17:21;7.80;;;2.92;;
5762;SDS011;2906;53.282;9.508;2024-02-14T01:18:24;6.43;;;2.70;;
5762;SDS011;2906;53.282;9.508;2024-02-14T01:19:25;4.72;;;2.25;;
5762;SDS011;2906;53.282;9.508;2024-02-14T01:20:30;5.47;;;2.40;;
5762;SDS011;2906;53.282;9.508;2024-02-14T01:21:32;4.00;;;2.15;;
5762;SDS011;2906;53.282;9.508;2024-02-14T01:22:37;7.47;;;2.80;;
5762;SDS011;2906;53.282;9.508;2024-02-14T01:23:39;4.35;;;3.17;;
5762;SDS011;2906;53.282;9.508;2024-02-14T01:24:45;7.53;;;3.33;;
5762;SDS011;2906;53.282;9.508;2024-02-14T01:25:48;2.67;;;2.35;;
5762;SDS011;2906;53.282;9.508;2024-02-14T01:26:50;3.05;;;2.42;;
5762;SDS011;2906;53.282;9.508;2024-02-14T01:27:54;4.35;;;2.75;;
5762;SDS011;2906;53.282;9.508;2024-02-14T01:28:58;3.70;;;2.90;;
5762;SDS011;2906;53.282;9.508;2024-02-14T01:30:15;5.60;;;2.90;;
5762;SDS011;2906;53.282;9.508;2024-02-14T01:31:19;4.18;;;2.60;;
5762;SDS011;2906;53.282;9.508;2024-02-14T01:32:20;3.00;;;2.58;;
5762;SDS011;2906;53.282;9.508;2024-02-14T01:33:25;6.00;;;2.90;;
5762;SDS011;2906;53.282;9.508;2024-02-14T01:34:29;5.47;;;3.80;;
5762;SDS011;2906;53.282;9.508;2024-02-14T01:35:40;4.18;;;2.60;;
5762;SDS011;2906;53.282;9.508;2024-02-14T01:36:48;3.90;;;2.67;;
5762;SDS011;2906;53.282;9.508;2024-02-14T01:37:53;5.40;;;3.15;;
5762;SDS011;2906;53.282;9.508;2024-02-14T01:38:56;5.03;;;2.35;;
5762;SDS011;2906;53.282;9.508;2024-02-14T01:39:58;5.88;;;2.72;;
5762;SDS011;2906;53.282;9.508;2024-02-14T01:41:01;4.18;;;2.97;;
5762;SDS011;2906;53.282;9.508;2024-02-14T01:42:06;7.88;;;2.65;;
5762;SDS011;2906;53.282;9.508;2024-02-14T01:43:11;5.65;;;3.10;;
5762;SDS011;2906;53.282;9.508;2024-02-14T01:44:18;5.60;;;2.65;;
5762;SDS011;2906;53.282;9.508;2024-02-14T01:45:22;4.22;;;2.53;;
5762;SDS011;2906;53.282;9.508;2024-02-14T01:46:26;4.63;;;3.00;;
5762;SDS011;2906;53.282;9.508;2024-02-14T01:47:30;4.35;;;2.72;;
5762;SDS011;2906;53.282;9.508;2024-02-14T01:48:33;6.43;;;3.65;;
5762;SDS011;2906;53.282;9.508;2024-02-14T01:49:36;6.13;;;3.47;;
5762;SDS011;2906;53.282;9.508;2024-02-14T01:50:40;4.40;;;3.20;;
5762;SDS011;2906;53.282;9.508;2024-02-14T01:51:47;8.43;;;3.28;;
5762;SDS011;2906;53.282;9.508;2024-02-14T01:52:53;6.57;;;3.10;;
5762;SDS011;2906;53.282;9.508;2024-02-14T01:53:56;5.53;;;3.30;;
5762;SDS011;2906;53.282;9.508;2024-02-14T01:55:06;6.20;;;2.97;;
5762;SDS011;2906;53.282;9.508;2024-02-14T01:56:11;6.05;;;3.40;;
5762;SDS011;2906;53.282;9.508;2024-02-14T01:57:17;4.85;;;2.92;;
5762;SDS011;2906;53.282;9.508;2024-02-14T01:58:21;4.03;;;2.95;;
5762;SDS011;2906;53.282;9.508;2024-02-14T01:59:23;4.38;;;3.35;;
5762;SDS011;2906;53.282;9.508;2024-02-14T02:00:31;7.45;;;3.60;;
5762;SDS011;2906;53.282;9.508;2024-02-14T02:01:33;6.22;;;3.63;;
5762;SDS011;2906;53.282;9.508;2024-02-14T02:02:35;7.30;;;3.58;;
5762;SDS011;2906;53.282;9.508;2024-02-14T02:03:37;6.47;;;3.20;;
5762;SDS011;2906;53.282;9.508;2024-02-14T02:04:44;4.65;;;3.58;;
5762;SDS011;2906;53.282;9.508;2024-02-14T02:05:48;4.25;;;3.60;;
5762;SDS011;2906;53.282;9.508;2024-02-14T02:06:55;11.10;;;3.42;;
5762;SDS011;2906;53.282;9.508;2024-02-14T02:07:59;3.47;;;3.13;;
5762;SDS011;2906;53.282;9.508;2024-02-14T02:09:04;4.68;;;3.35;;
5762;SDS011;2906;53.282;9.508;2024-02-14T02:10:10;5.70;;;3.50;;
5762;SDS011;2906;53.282;9.508;2024-02-14T02:11:13;4.07;;;3.28;;
5762;SDS011;2906;53.282;9.508;2024-02-14T02:12:14;5.10;;;3.20;;
5762;SDS011;2906;53.282;9.508;2024-02-14T02:13:17;4.15;;;3.30;;
5762;SDS011;2906;53.282;9.508;2024-02-14T02:14:20;9.23;;;3.80;;
5762;SDS011;2906;53.282;9.508;2024-02-14T02:15:26;6.68;;;3.70;;
5762;SDS011;2906;53.282;9.508;2024-02-14T02:16:30;4.70;;;3.40;;
5762;SDS011;2906;53.282;9.508;2024-02-14T02:17:34;8.63;;;4.00;;
5762;SDS011;2906;53.282;9.508;2024-02-14T02:18:36;11.02;;;3.90;;
5762;SDS011;2906;53.282;9.508;2024-02-14T02:19:41;4.25;;;3.47;;
5762;SDS011;2906;53.282;9.508;2024-02-14T02:20:44;6.57;;;3.95;;
5762;SDS011;2906;53.282;9.508;2024-02-14T02:21:47;10.77;;;3.50;;
5762;SDS011;2906;53.282;9.508;2024-02-14T02:24:23;9.00;;;4.32;;
5762;SDS011;2906;53.282;9.508;2024-02-14T02:25:27;8.88;;;4.00;;
5762;SDS011;2906;53.282;9.508;2024-02-14T02:26:28;9.40;;;4.07;;
5762;SDS011;2906;53.282;9.508;2024-02-14T02:27:32;5.68;;;3.30;;
5762;SDS011;2906;53.282;9.508;2024-02-14T02:28:38;4.43;;;3.58;;
5762;SDS011;2906;53.282;9.508;2024-02-14T02:29:42;5.78;;;3.55;;
5762;SDS011;2906;53.282;9.508;2024-02-14T02:30:48;5.68;;;3.50;;
5762;SDS011;2906;53.282;9.508;2024-02-14T02:31:49;4.32;;;3.13;;
5762;SDS011;2906;53.282;9.508;2024-02-14T02:32:55;8.88;;;3.90;;
5762;SDS011;2906;53.282;9.508;2024-02-14T02:34:02;6.03;;;3.30;;
5762;SDS011;2906;53.282;9.508;2024-02-14T02:35:06;11.77;;;4.63;;
5762;SDS011;2906;53.282;9.508;2024-02-14T02:36:09;11.07;;;4.10;;
5762;SDS011;2906;53.282;9.508;2024-02-14T02:37:12;6.00;;;3.60;;
5762;SDS011;2906;53.282;9.508;2024-02-14T02:38:17;4.22;;;2.97;;
5762;SDS011;2906;53.282;9.508;2024-02-14T02:39:27;5.22;;;3.58;;
5762;SDS011;2906;53.282;9.508;2024-02-14T02:40:33;9.65;;;3.30;;
5762;SDS011;2906;53.282;9.508;2024-02-14T02:41:35;8.20;;;3.88;;
5762;SDS011;2906;53.282;9.508;2024-02-14T02:42:37;9.95;;;3.55;;
5762;SDS011;2906;53.282;9.508;2024-02-14T02:43:40;5.32;;;3.22;;
5762;SDS011;2906;53.282;9.508;2024-02-14T02:44:46;6.15;;;3.22;;
5762;SDS011;2906;53.282;9.508;2024-02-14T02:45:50;4.78;;;3.28;;
5762;SDS011;2906;53.282;9.508;2024-02-14T02:47:02;4.20;;;3.17;;
5762;SDS011;2906;53.282;9.508;2024-02-14T02:48:07;5.85;;;3.42;;
5762;SDS011;2906;53.282;9.508;2024-02-14T02:49:10;5.13;;;3.20;;
5762;SDS011;2906;53.282;9.508;2024-02-14T02:50:14;4.70;;;3.30;;
5762;SDS011;2906;53.282;9.508;2024-02-14T02:51:21;9.13;;;3.45;;
5762;SDS011;2906;53.282;9.508;2024-02-14T02:52:23;6.70;;;3.90;;
5762;SDS011;2906;53.282;9.508;2024-02-14T02:53:25;4.75;;;3.33;;
5762;SDS011;2906;53.282;9.508;2024-02-14T02:54:29;7.57;;;3.55;;
5762;SDS011;2906;53.282;9.508;2024-02-14T02:55:32;5.13;;;3.67;;
5762;SDS011;2906;53.282;9.508;2024-02-14T02:56:37;9.00;;;3.40;;
5762;SDS011;2906;53.282;9.508;2024-02-14T02:57:41;3.60;;;3.05;;
5762;SDS011;2906;53.282;9.508;2024-02-14T02:58:43;10.32;;;3.63;;
5762;SDS011;2906;53.282;9.508;2024-02-14T02:59:47;6.13;;;4.05;;
5762;SDS011;2906;53.282;9.508;2024-02-14T03:00:54;7.50;;;3.70;;
5762;SDS011;2906;53.282;9.508;2024-02-14T03:01:59;6.78;;;3.88;;
5762;SDS011;2906;53.282;9.508;2024-02-14T03:03:03;10.77;;;3.78;;
5762;SDS011;2906;53.282;9.508;2024-02-14T03:04:12;9.32;;;3.40;;
5762;SDS011;2906;53.282;9.508;2024-02-14T03:05:15;4.90;;;3.60;;
5762;SDS011;2906;53.282;9.508;2024-02-14T03:06:20;9.93;;;3.90;;
5762;SDS011;2906;53.282;9.508;2024-02-14T03:07:21;6.70;;;3.75;;
5762;SDS011;2906;53.282;9.508;2024-02-14T03:08:24;11.77;;;4.03;;
5762;SDS011;2906;53.282;9.508;2024-02-14T03:09:25;7.07;;;3.72;;
5762;SDS011;2906;53.282;9.508;2024-02-14T03:10:29;5.00;;;3.58;;
5762;SDS011;2906;53.282;9.508;2024-02-14T03:11:31;6.97;;;3.60;;
5762;SDS011;2906;53.282;9.508;2024-02-14T03:12:34;7.07;;;3.45;;
5762;SDS011;2906;53.282;9.508;2024-02-14T03:13:36;5.00;;;3.30;;
5762;SDS011;2906;53.282;9.508;2024-02-14T03:14:41;9.73;;;4.40;;
5762;SDS011;2906;53.282;9.508;2024-02-14T03:15:44;6.43;;;3.85;;
5762;SDS011;2906;53.282;9.508;2024-02-14T03:16:48;5.13;;;3.55;;
5762;SDS011;2906;53.282;9.508;2024-02-14T03:17:52;9.32;;;4.70;;
5762;SDS011;2906;53.282;9.508;2024-02-14T03:18:55;4.93;;;3.75;;
5762;SDS011;2906;53.282;9.508;2024-02-14T03:19:56;6.63;;;3.72;;
5762;SDS011;2906;53.282;9.508;2024-02-14T03:20:59;8.77;;;3.42;;
5762;SDS011;2906;53.282;9.508;2024-02-14T03:22:06;4.13;;;3.47;;
5762;SDS011;2906;53.282;9.508;2024-02-14T03:23:09;5.75;;;3.20;;
5762;SDS011;2906;53.282;9.508;2024-02-14T03:24:11;7.35;;;3.85;;
5762;SDS011;2906;53.282;9.508;2024-02-14T03:25:16;9.07;;;4.03;;
5762;SDS011;2906;53.282;9.508;2024-02-14T03:26:20;7.47;;;3.60;;
5762;SDS011;2906;53.282;9.508;2024-02-14T03:27:21;6.35;;;3.80;;
5762;SDS011;2906;53.282;9.508;2024-02-14T03:28:27;6.45;;;3.40;;
5762;SDS011;2906;53.282;9.508;2024-02-14T03:29:28;6.25;;;3.50;;
5762;SDS011;2906;53.282;9.508;2024-02-14T03:30:31;7.22;;;3.75;;
5762;SDS011;2906;53.282;9.508;2024-02-14T03:31:34;5.25;;;3.50;;
5762;SDS011;2906;53.282;9.508;2024-02-14T03:32:36;6.22;;;3.92;;
5762;SDS011;2906;53.282;9.508;2024-02-14T03:33:41;9.57;;;3.70;;
5762;SDS011;2906;53.282;9.508;2024-02-14T03:34:44;11.02;;;3.97;;
5762;SDS011;2906;53.282;9.508;2024-02-14T03:35:46;7.68;;;3.70;;
5762;SDS011;2906;53.282;9.508;2024-02-14T03:36:52;11.13;;;3.88;;
5762;SDS011;2906;53.282;9.508;2024-02-14T03:37:55;14.57;;;4.15;;
5762;SDS011;2906;53.282;9.508;2024-02-14T03:39:01;15.18;;;5.22;;
5762;SDS011;2906;53.282;9.508;2024-02-14T03:40:07;6.65;;;4.63;;
5762;SDS011;2906;53.282;9.508;2024-02-14T03:41:11;4.93;;;4.00;;
5762;SDS011;2906;53.282;9.508;2024-02-14T03:42:14;4.82;;;3.95;;
5762;SDS011;2906;53.282;9.508;2024-02-14T03:43:17;9.63;;;3.92;;
5762;SDS011;2906;53.282;9.508;2024-02-14T03:44:19;5.13;;;3.72;;
5762;SDS011;2906;53.282;9.508;2024-02-14T03:45:22;5.13;;;4.10;;
5762;SDS011;2906;53.282;9.508;2024-02-14T03:46:24;8.85;;;4.75;;
5762;SDS011;2906;53.282;9.508;2024-02-14T03:47:27;6.97;;;4.40;;
5762;SDS011;2906;53.282;9.508;2024-02-14T03:48:29;8.88;;;3.90;;
5762;SDS011;2906;53.282;9.508;2024-02-14T03:49:31;7.10;;;4.03;;
5762;SDS011;2906;53.282;9.508;2024-02-14T03:50:39;7.13;;;4.30;;
5762;SDS011;2906;53.282;9.508;2024-02-14T03:51:44;14.82;;;3.90;;
5762;SDS011;2906;53.282;9.508;2024-02-14T03:52:46;7.93;;;4.10;;
5762;SDS011;2906;53.282;9.508;2024-02-14T03:53:52;9.52;;;4.28;;
5762;SDS011;2906;53.282;9.508;2024-02-14T03:54:56;7.60;;;4.45;;
5762;SDS011;2906;53.282;9.508;2024-02-14T03:55:59;5.80;;;4.13;;
5762;SDS011;2906;53.282;9.508;2024-02-14T03:57:01;6.47;;;3.92;;
5762;SDS011;2906;53.282;9.508;2024-02-14T03:58:04;7.28;;;3.95;;
5762;SDS011;2906;53.282;9.508;2024-02-14T03:59:08;9.35;;;4.65;;
5762;SDS011;2906;53.282;9.508;2024-02-14T04:00:12;11.32;;;4.43;;
5762;SDS011;2906;53.282;9.508;2024-02-14T04:01:14;9.93;;;4.18;;
5762;SDS011;2906;53.282;9.508;2024-02-14T04:02:16;6.93;;;4.38;;
5762;SDS011;2906;53.282;9.508;2024-02-14T04:03:19;5.55;;;4.05;;
5762;SDS011;2906;53.282;9.508;2024-02-14T04:04:21;7.75;;;4.85;;
5762;SDS011;2906;53.282;9.508;2024-02-14T04:05:23;11.90;;;4.95;;
5762;SDS011;2906;53.282;9.508;2024-02-14T04:06:28;11.98;;;4.82;;
5762;SDS011;2906;53.282;9.508;2024-02-14T04:07:35;7.75;;;4.18;;
5762;SDS011;2906;53.282;9.508;2024-02-14T04:08:37;8.43;;;4.43;;
5762;SDS011;2906;53.282;9.508;2024-02-14T04:09:42;7.25;;;4.38;;
5762;SDS011;2906;53.282;9.508;2024-02-14T04:10:46;7.63;;;4.45;;
5762;SDS011;2906;53.282;9.508;2024-02-14T04:11:51;6.00;;;5.20;;
5762;SDS011;2906;53.282;9.508;2024-02-14T04:12:58;7.25;;;5.30;;
5762;SDS011;2906;53.282;9.508;2024-02-14T04:14:13;10.95;;;4.80;;
5762;SDS011;2906;53.282;9.508;2024-02-14T04:15:19;10.82;;;5.07;;
5762;SDS011;2906;53.282;9.508;2024-02-14T04:16:22;8.07;;;5.20;;
5762;SDS011;2906;53.282;9.508;2024-02-14T04:17:26;8.50;;;5.22;;
5762;SDS011;2906;53.282;9.508;2024-02-14T04:18:30;8.02;;;4.68;;
5762;SDS011;2906;53.282;9.508;2024-02-14T04:19:33;9.95;;;5.07;;
5762;SDS011;2906;53.282;9.508;2024-02-14T04:20:37;6.72;;;5.03;;
5762;SDS011;2906;53.282;9.508;2024-02-14T04:21:41;6.03;;;4.50;;
5762;SDS011;2906;53.282;9.508;2024-02-14T04:22:45;7.68;;;5.30;;
5762;SDS011;2906;53.282;9.508;2024-02-14T04:23:48;8.70;;;5.18;;
5762;SDS011;2906;53.282;9.508;2024-02-14T04:24:54;10.25;;;5.97;;
5762;SDS011;2906;53.282;9.508;2024-02-14T04:25:59;6.88;;;5.18;;
5762;SDS011;2906;53.282;9.508;2024-02-14T04:27:02;6.85;;;5.20;;
5762;SDS011;2906;53.282;9.508;2024-02-14T04:28:04;8.02;;;5.50;;
5762;SDS011;2906;53.282;9.508;2024-02-14T04:29:08;8.07;;;4.85;;
5762;SDS011;2906;53.282;9.508;2024-02-14T04:30:11;9.35;;;5.72;;
5762;SDS011;2906;53.282;9.508;2024-02-14T04:31:13;10.20;;;6.10;;
5762;SDS011;2906;53.282;9.508;2024-02-14T04:32:16;8.07;;;5.85;;
5762;SDS011;2906;53.282;9.508;2024-02-14T04:33:19;7.90;;;5.82;;
5762;SDS011;2906;53.282;9.508;2024-02-14T04:34:21;11.73;;;5.10;;
5762;SDS011;2906;53.282;9.508;2024-02-14T04:35:24;11.38;;;5.32;;
5762;SDS011;2906;53.282;9.508;2024-02-14T04:36:25;11.43;;;5.70;;
5762;SDS011;2906;53.282;9.508;2024-02-14T04:37:29;6.60;;;5.30;;
5762;SDS011;2906;53.282;9.508;2024-02-14T04:38:31;7.97;;;5.72;;
5762;SDS011;2906;53.282;9.508;2024-02-14T04:39:34;9.50;;;5.85;;
5762;SDS011;2906;53.282;9.508;2024-02-14T04:40:35;8.35;;;6.07;;
5762;SDS011;2906;53.282;9.508;2024-02-14T04:41:38;8.82;;;5.18;;
5762;SDS011;2906;53.282;9.508;2024-02-14T04:42:39;6.80;;;5.38;;
5762;SDS011;2906;53.282;9.508;2024-02-14T04:43:42;11.75;;;6.35;;
5762;SDS011;2906;53.282;9.508;2024-02-14T04:44:45;9.35;;;5.43;;
5762;SDS011;2906;53.282;9.508;2024-02-14T04:45:48;10.13;;;5.95;;
5762;SDS011;2906;53.282;9.508;2024-02-14T04:46:50;6.88;;;4.75;;
5762;SDS011;2906;53.282;9.508;2024-02-14T04:47:53;8.32;;;5.45;;
5762;SDS011;2906;53.282;9.508;2024-02-14T04:48:55;8.45;;;5.68;;
5762;SDS011;2906;53.282;9.508;2024-02-14T04:49:57;7.88;;;5.35;;
5762;SDS011;2906;53.282;9.508;2024-02-14T04:51:00;8.93;;;5.60;;
5762;SDS011;2906;53.282;9.508;2024-02-14T04:52:02;7.32;;;5.50;;
5762;SDS011;2906;53.282;9.508;2024-02-14T04:53:04;8.50;;;6.22;;
5762;SDS011;2906;53.282;9.508;2024-02-14T04:54:08;7.32;;;5.68;;
5762;SDS011;2906;53.282;9.508;2024-02-14T04:55:10;13.27;;;5.82;;
5762;SDS011;2906;53.282;9.508;2024-02-14T04:56:15;10.02;;;5.18;;
5762;SDS011;2906;53.282;9.508;2024-02-14T04:57:17;7.32;;;5.95;;
5762;SDS011;2906;53.282;9.508;2024-02-14T04:58:20;10.90;;;5.93;;
5762;SDS011;2906;53.282;9.508;2024-02-14T04:59:21;7.55;;;5.40;;
5762;SDS011;2906;53.282;9.508;2024-02-14T05:00:25;9.75;;;6.03;;
5762;SDS011;2906;53.282;9.508;2024-02-14T05:01:28;10.68;;;5.47;;
5762;SDS011;2906;53.282;9.508;2024-02-14T05:03:48;8.52;;;5.60;;
5762;SDS011;2906;53.282;9.508;2024-02-14T05:04:52;9.60;;;5.05;;
5762;SDS011;2906;53.282;9.508;2024-02-14T05:05:54;11.00;;;5.78;;
5762;SDS011;2906;53.282;9.508;2024-02-14T05:07:00;7.70;;;5.63;;
5762;SDS011;2906;53.282;9.508;2024-02-14T05:08:08;8.73;;;5.63;;
5762;SDS011;2906;53.282;9.508;2024-02-14T05:09:14;9.93;;;6.65;;
5762;SDS011;2906;53.282;9.508;2024-02-14T05:10:18;8.68;;;6.07;;
5762;SDS011;2906;53.282;9.508;2024-02-14T05:11:27;6.60;;;5.55;;
5762;SDS011;2906;53.282;9.508;2024-02-14T05:12:30;9.30;;;6.30;;
5762;SDS011;2906;53.282;9.508;2024-02-14T05:13:32;9.43;;;5.93;;
5762;SDS011;2906;53.282;9.508;2024-02-14T05:14:36;9.88;;;6.75;;
5762;SDS011;2906;53.282;9.508;2024-02-14T05:15:41;8.15;;;5.97;;
5762;SDS011;2906;53.282;9.508;2024-02-14T05:16:43;9.25;;;5.70;;
5762;SDS011;2906;53.282;9.508;2024-02-14T05:17:48;8.43;;;6.13;;
5762;SDS011;2906;53.282;9.508;2024-02-14T05:18:50;10.95;;;5.88;;
5762;SDS011;2906;53.282;9.508;2024-02-14T05:19:56;8.20;;;5.88;;
5762;SDS011;2906;53.282;9.508;2024-02-14T05:20:57;12.75;;;6.18;;
5762;SDS011;2906;53.282;9.508;2024-02-14T05:22:00;14.75;;;6.05;;
5762;SDS011;2906;53.282;9.508;2024-02-14T05:23:06;10.85;;;7.07;;
5762;SDS011;2906;53.282;9.508;2024-02-14T05:24:11;8.35;;;5.75;;
5762;SDS011;2906;53.282;9.508;2024-02-14T05:25:14;8.35;;;5.80;;
5762;SDS011;2906;53.282;9.508;2024-02-14T05:26:18;10.00;;;5.63;;
5762;SDS011;2906;53.282;9.508;2024-02-14T05:27:20;8.95;;;6.35;;
5762;SDS011;2906;53.282;9.508;2024-02-14T05:28:23;9.57;;;6.10;;
5762;SDS011;2906;53.282;9.508;2024-02-14T05:29:26;12.65;;;5.97;;
5762;SDS011;2906;53.282;9.508;2024-02-14T05:30:27;8.60;;;5.95;;
5762;SDS011;2906;53.282;9.508;2024-02-14T05:31:43;11.07;;;6.47;;
5762;SDS011;2906;53.282;9.508;2024-02-14T05:32:45;7.80;;;5.97;;
5762;SDS011;2906;53.282;9.508;2024-02-14T05:33:48;10.82;;;6.07;;
5762;SDS011;2906;53.282;9.508;2024-02-14T05:34:50;9.50;;;6.13;;
5762;SDS011;2906;53.282;9.508;2024-02-14T05:35:54;8.50;;;5.60;;
5762;SDS011;2906;53.282;9.508;2024-02-14T05:36:57;9.15;;;6.32;;
5762;SDS011;2906;53.282;9.508;2024-02-14T05:38:00;8.82;;;5.60;;
5762;SDS011;2906;53.282;9.508;2024-02-14T05:39:05;9.32;;;5.75;;
5762;SDS011;2906;53.282;9.508;2024-02-14T05:40:08;8.25;;;5.97;;
5762;SDS011;2906;53.282;9.508;2024-02-14T05:41:10;10.85;;;6.28;;
5762;SDS011;2906;53.282;9.508;2024-02-14T05:42:13;10.00;;;6.00;;
5762;SDS011;2906;53.282;9.508;2024-02-14T05:43:16;14.90;;;6.93;;
5762;SDS011;2906;53.282;9.508;2024-02-14T05:44:20;8.40;;;5.88;;
5762;SDS011;2906;53.282;9.508;2024-02-14T05:45:29;9.35;;;6.00;;
5762;SDS011;2906;53.282;9.508;2024-02-14T05:46:36;9.30;;;6.30;;
5762;SDS011;2906;53.282;9.508;2024-02-14T05:47:42;8.02;;;5.78;;
5762;SDS011;2906;53.282;9.508;2024-02-14T05:48:46;9.63;;;5.97;;
5762;SDS011;2906;53.282;9.508;2024-02-14T05:49:50;7.90;;;5.63;;
5762;SDS011;2906;53.282;9.508;2024-02-14T05:50:52;10.07;;;6.03;;
5762;SDS011;2906;53.282;9.508;2024-02-14T05:51:57;8.95;;;6.18;;
5762;SDS011;2906;53.282;9.508;2024-02-14T05:52:59;9.48;;;6.80;;
5762;SDS011;2906;53.282;9.508;2024-02-14T05:54:07;9.70;;;6.30;;
5762;SDS011;2906;53.282;9.508;2024-02-14T05:55:13;11.63;;;6.55;;
5762;SDS011;2906;53.282;9.508;2024-02-14T05:56:18;8.90;;;5.82;;
5762;SDS011;2906;53.282;9.508;2024-02-14T05:57:34;10.55;;;6.55;;
5762;SDS011;2906;53.282;9.508;2024-02-14T05:58:36;7.55;;;6.05;;
5762;SDS011;2906;53.282;9.508;2024-02-14T05:59:40;8.77;;;6.45;;
5762;SDS011;2906;53.282;9.508;2024-02-14T06:00:46;14.73;;;6.47;;
5762;SDS011;2906;53.282;9.508;2024-02-14T06:01:50;9.50;;;6.18;;
5762;SDS011;2906;53.282;9.508;2024-02-14T06:02:54;10.25;;;6.97;;
5762;SDS011;2906;53.282;9.508;2024-02-14T06:03:56;8.43;;;6.60;;
5762;SDS011;2906;53.282;9.508;2024-02-14T06:05:00;8.93;;;6.85;;
5762;SDS011;2906;53.282;9.508;2024-02-14T06:06:01;10.27;;;7.10;;
5762;SDS011;2906;53.282;9.508;2024-02-14T06:07:05;10.75;;;7.15;;
5762;SDS011;2906;53.282;9.508;2024-02-14T06:08:10;9.00;;;6.55;;
5762;SDS011;2906;53.282;9.508;2024-02-14T06:09:14;8.98;;;6.50;;
5762;SDS011;2906;53.282;9.508;2024-02-14T06:10:18;10.43;;;6.53;;
5762;SDS011;2906;53.282;9.508;2024-02-14T06:11:23;9.05;;;6.72;;
5762;SDS011;2906;53.282;9.508;2024-02-14T06:12:25;10.95;;;6.75;;
5762;SDS011;2906;53.282;9.508;2024-02-14T06:13:27;7.93;;;5.93;;
5762;SDS011;2906;53.282;9.508;2024-02-14T06:14:29;9.60;;;6.07;;
5762;SDS011;2906;53.282;9.508;2024-02-14T06:15:34;8.93;;;6.72;;
5762;SDS011;2906;53.282;9.508;2024-02-14T06:16:36;8.23;;;6.07;;
5762;SDS011;2906;53.282;9.508;2024-02-14T06:17:38;18.20;;;6.80;;
5762;SDS011;2906;53.282;9.508;2024-02-14T06:18:41;12.60;;;7.03;;
5762;SDS011;2906;53.282;9.508;2024-02-14T06:19:44;8.55;;;6.82;;
5762;SDS011;2906;53.282;9.508;2024-02-14T06:20:45;10.90;;;7.03;;
5762;SDS011;2906;53.282;9.508;2024-02-14T06:21:47;10.65;;;6.60;;
5762;SDS011;2906;53.282;9.508;2024-02-14T06:22:49;11.15;;;6.85;;
5762;SDS011;2906;53.282;9.508;2024-02-14T06:23:51;14.32;;;6.63;;
5762;SDS011;2906;53.282;9.508;2024-02-14T06:24:53;10.85;;;7.07;;
5762;SDS011;2906;53.282;9.508;2024-02-14T06:25:54;10.23;;;7.10;;
5762;SDS011;2906;53.282;9.508;2024-02-14T06:26:57;50.20;;;18.08;;
5762;SDS011;2906;53.282;9.508;2024-02-14T06:27:58;13.10;;;6.88;;
5762;SDS011;2906;53.282;9.508;2024-02-14T06:29:01;14.35;;;7.15;;
5762;SDS011;2906;53.282;9.508;2024-02-14T06:30:03;10.27;;;7.15;;
5762;SDS011;2906;53.282;9.508;2024-02-14T06:31:05;9.70;;;7.25;;
5762;SDS011;2906;53.282;9.508;2024-02-14T06:32:08;10.50;;;6.13;;
5762;SDS011;2906;53.282;9.508;2024-02-14T06:33:10;9.57;;;6.55;;
5762;SDS011;2906;53.282;9.508;2024-02-14T06:34:14;10.20;;;6.43;;
5762;SDS011;2906;53.282;9.508;2024-02-14T06:35:15;9.40;;;6.75;;
5762;SDS011;2906;53.282;9.508;2024-02-14T06:36:19;10.57;;;7.20;;
5762;SDS011;2906;53.282;9.508;2024-02-14T06:37:20;11.90;;;7.70;;
5762;SDS011;2906;53.282;9.508;2024-02-14T06:38:22;12.10;;;7.90;;
5762;SDS011;2906;53.282;9.508;2024-02-14T06:39:24;11.20;;;7.28;;
5762;SDS011;2906;53.282;9.508;2024-02-14T06:40:27;9.77;;;7.40;;